createdAt,value
2023-01-06T00:01:51.777Z,5.57
2023-01-06T00:04:21.312Z,5.59
2023-01-06T00:06:53.478Z,5.48
2023-01-06T00:09:22.953Z,5.49
2023-01-06T00:11:52.758Z,5.58
2023-01-06T00:14:22.231Z,5.52
2023-01-06T00:16:52.640Z,5.39
2023-01-06T00:19:22.246Z,5.48
2023-01-06T00:21:54.289Z,5.41
2023-01-06T00:24:23.762Z,5.36
2023-01-06T00:26:53.289Z,5.42
2023-01-06T00:29:22.773Z,5.46
2023-01-06T00:31:52.297Z,5.51
2023-01-06T00:34:21.788Z,5.52
2023-01-06T00:36:53.916Z,5.53
2023-01-06T00:39:23.370Z,5.50
2023-01-06T00:42:07.803Z,5.51
2023-01-06T00:44:38.763Z,5.46
2023-01-06T00:47:09.641Z,5.49
2023-01-06T00:49:39.743Z,5.47
2023-01-06T00:52:11.967Z,5.49
2023-01-06T00:54:41.750Z,5.44
2023-01-06T00:57:11.452Z,5.52
2023-01-06T00:59:41.152Z,5.61
2023-01-06T01:02:10.725Z,5.53
2023-01-06T01:04:40.337Z,5.51
2023-01-06T01:07:12.429Z,5.52
2023-01-06T01:09:41.965Z,5.49
2023-01-06T01:12:14.162Z,5.51
2023-01-06T01:14:47.145Z,5.58
2023-01-06T01:17:20.237Z,5.49
2023-01-06T01:19:50.403Z,5.46
2023-01-06T01:22:22.676Z,5.53
2023-01-06T01:24:52.085Z,5.48
2023-01-06T01:27:21.887Z,5.49
2023-01-06T01:29:51.349Z,5.52
2023-01-06T01:32:21.026Z,5.58
2023-01-06T01:34:50.429Z,5.53
2023-01-06T01:37:22.491Z,5.53
2023-01-06T01:39:51.944Z,5.47
2023-01-06T01:42:23.111Z,5.57
2023-01-06T01:45:01.902Z,5.53
2023-01-06T01:47:46.481Z,5.51
2023-01-06T01:50:31.303Z,5.47
2023-01-06T01:53:06.063Z,5.61
2023-01-06T01:55:35.998Z,5.56
2023-01-06T01:58:09.668Z,5.57
2023-01-06T02:00:39.578Z,5.61
2023-01-06T02:03:09.283Z,5.58
2023-01-06T02:05:41.431Z,5.75
2023-01-06T02:08:19.157Z,5.80
2023-01-06T02:10:48.587Z,5.79
2023-01-06T02:13:19.101Z,5.81
2023-01-06T02:15:48.649Z,5.80
2023-01-06T02:18:40.826Z,5.73
2023-01-06T02:21:18.504Z,5.74
2023-01-06T02:24:24.563Z,5.69
2023-01-06T02:27:22.022Z,5.70
2023-01-06T02:30:29.321Z,5.74
2023-01-06T02:33:11.357Z,5.71
2023-01-06T02:35:53.678Z,5.66
2023-01-06T02:38:31.640Z,5.75
2023-01-06T02:41:11.005Z,5.73
2023-01-06T02:43:49.004Z,5.85
2023-01-06T02:46:27.977Z,5.81
2023-01-06T02:49:10.638Z,5.78
2023-01-06T02:51:47.169Z,5.71
2023-01-06T02:54:22.879Z,5.83
2023-01-06T02:56:56.017Z,5.83
2023-01-06T02:59:27.849Z,5.92
2023-01-06T03:01:57.912Z,5.82
2023-01-06T03:04:34.556Z,5.87
2023-01-06T03:07:05.306Z,5.96
2023-01-06T03:09:37.355Z,6.07
2023-01-06T03:12:10.495Z,5.96
2023-01-06T03:14:42.165Z,6.06
2023-01-06T03:17:11.657Z,6.02
2023-01-06T03:19:43.821Z,5.91
2023-01-06T03:22:14.097Z,5.96
2023-01-06T03:24:43.709Z,6.00
2023-01-06T03:27:13.206Z,6.07
2023-01-06T03:29:42.855Z,5.99
2023-01-06T03:32:15.771Z,6.15
2023-01-06T03:35:04.117Z,6.27
2023-01-06T03:37:39.386Z,6.13
2023-01-06T03:40:14.447Z,6.15
2023-01-06T03:43:00.296Z,6.16
2023-01-06T03:45:45.008Z,6.26
2023-01-06T03:48:21.176Z,6.28
2023-01-06T03:51:02.670Z,6.16
2023-01-06T03:53:37.833Z,6.23
2023-01-06T03:56:15.155Z,6.28
2023-01-06T03:58:44.972Z,6.27
2023-01-06T04:01:15.063Z,6.37
2023-01-06T04:03:47.887Z,6.32
2023-01-06T04:06:19.911Z,6.30
2023-01-06T04:08:49.360Z,6.33
2023-01-06T04:11:31.018Z,6.37
2023-01-06T04:14:00.454Z,6.38
2023-01-06T04:16:29.913Z,6.44
2023-01-06T04:18:59.344Z,6.45
2023-01-06T04:21:31.465Z,6.44
2023-01-06T04:24:00.983Z,6.50
2023-01-06T04:26:30.509Z,6.60
2023-01-06T04:29:00.030Z,6.61
2023-01-06T04:31:29.514Z,6.52
2023-01-06T04:33:58.889Z,6.60
2023-01-06T04:36:30.853Z,6.75
2023-01-06T04:39:00.219Z,6.67
2023-01-06T04:41:29.640Z,6.72
2023-01-06T04:43:59.084Z,6.73
2023-01-06T04:46:28.431Z,6.89
2023-01-06T04:48:57.836Z,6.80
2023-01-06T04:51:27.552Z,6.90
2023-01-06T04:53:59.637Z,6.97
2023-01-06T04:56:29.119Z,6.99
2023-01-06T04:58:59.873Z,6.91
2023-01-06T05:01:30.079Z,6.94
2023-01-06T05:03:59.967Z,6.98
2023-01-06T05:06:29.334Z,6.99
2023-01-06T05:09:01.399Z,7.08
2023-01-06T05:11:30.950Z,7.21
2023-01-06T05:14:01.132Z,7.23
2023-01-06T05:16:33.025Z,7.24
2023-01-06T05:19:03.184Z,7.33
2023-01-06T05:21:36.105Z,7.43
2023-01-06T05:24:08.470Z,7.49
2023-01-06T05:26:37.867Z,7.50
2023-01-06T05:29:07.291Z,7.54
2023-01-06T05:31:36.739Z,7.57
2023-01-06T05:34:06.153Z,7.57
2023-01-06T05:36:35.537Z,7.61
2023-01-06T05:39:05.049Z,7.59
2023-01-06T05:41:37.101Z,7.65
2023-01-06T05:44:07.012Z,7.65
2023-01-06T05:46:36.400Z,7.61
2023-01-06T05:49:05.994Z,7.61
2023-01-06T05:51:35.415Z,7.63
2023-01-06T05:54:04.770Z,7.64
2023-01-06T05:56:36.979Z,7.66
2023-01-06T05:59:06.574Z,7.69
2023-01-06T06:01:36.111Z,7.67
2023-01-06T06:04:05.776Z,7.67
2023-01-06T06:06:35.240Z,7.69
2023-01-06T06:09:05.074Z,7.69
2023-01-06T06:11:37.095Z,7.67
2023-01-06T06:14:06.515Z,7.68
2023-01-06T06:16:35.942Z,7.68
2023-01-06T06:19:05.352Z,7.69
2023-01-06T06:21:35.023Z,7.71
2023-01-06T06:24:04.441Z,7.69
2023-01-06T06:26:34.030Z,7.70
2023-01-06T06:29:08.180Z,7.68
2023-01-06T06:31:37.760Z,7.68
2023-01-06T06:34:07.971Z,7.67
2023-01-06T06:36:37.359Z,7.68
2023-01-06T06:39:07.035Z,7.73
2023-01-06T06:41:36.429Z,7.75
2023-01-06T06:44:09.399Z,7.74
2023-01-06T06:46:38.896Z,7.73
2023-01-06T06:49:08.498Z,7.75
2023-01-06T06:51:37.900Z,7.73
2023-01-06T06:54:07.879Z,7.74
2023-01-06T06:56:37.270Z,7.77
2023-01-06T06:59:09.578Z,7.74
2023-01-06T07:01:39.071Z,7.75
2023-01-06T07:04:09.699Z,7.78
2023-01-06T07:06:39.231Z,7.79
2023-01-06T07:09:08.715Z,7.73
2023-01-06T07:11:38.078Z,7.76
2023-01-06T07:14:10.306Z,7.77
2023-01-06T07:16:39.715Z,7.73
2023-01-06T07:19:11.216Z,7.75
2023-01-06T07:21:41.086Z,7.74
2023-01-06T07:24:10.698Z,7.76
2023-01-06T07:26:40.062Z,7.76
2023-01-06T07:29:12.059Z,7.75
2023-01-06T07:31:41.481Z,7.82
2023-01-06T07:34:11.132Z,7.79
2023-01-06T07:36:40.508Z,7.78
2023-01-06T07:39:10.022Z,7.81
2023-01-06T07:41:39.390Z,7.79
2023-01-06T07:44:08.839Z,7.80
2023-01-06T07:46:41.383Z,7.83
2023-01-06T07:49:10.792Z,7.84
2023-01-06T07:51:40.157Z,7.84
2023-01-06T07:54:09.844Z,7.87
2023-01-06T07:56:39.520Z,7.88
2023-01-06T07:59:09.111Z,7.91
2023-01-06T08:01:41.303Z,7.90
2023-01-06T08:04:10.973Z,7.95
2023-01-06T08:06:42.312Z,7.91
2023-01-06T08:09:11.985Z,7.88
2023-01-06T08:11:41.412Z,7.91
2023-01-06T08:14:11.004Z,7.99
2023-01-06T08:16:43.951Z,7.99
2023-01-06T08:19:13.332Z,7.98
2023-01-06T08:21:42.734Z,7.94
2023-01-06T08:24:12.623Z,7.96
2023-01-06T08:26:42.126Z,8.00
2023-01-06T08:29:11.551Z,8.02
2023-01-06T08:31:43.554Z,8.01
2023-01-06T08:34:14.517Z,7.97
2023-01-06T08:36:44.779Z,8.01
2023-01-06T08:39:15.795Z,8.00
2023-01-06T08:41:47.574Z,8.00
2023-01-06T08:44:16.944Z,7.96
2023-01-06T08:46:49.335Z,7.95
2023-01-06T08:49:19.245Z,7.91
2023-01-06T08:51:49.057Z,7.95
2023-01-06T08:54:18.565Z,7.91
2023-01-06T08:56:48.245Z,7.87
2023-01-06T08:59:20.309Z,7.91
2023-01-06T09:01:52.474Z,7.85
2023-01-06T09:04:24.095Z,7.86
2023-01-06T09:06:54.932Z,7.85
2023-01-06T09:09:25.057Z,7.83
2023-01-06T09:11:54.799Z,7.90
2023-01-06T09:14:24.253Z,7.95
2023-01-06T09:16:56.443Z,7.91
2023-01-06T09:19:25.926Z,7.93
2023-01-06T09:21:55.449Z,7.93
2023-01-06T09:24:25.205Z,7.97
2023-01-06T09:26:54.651Z,7.97
2023-01-06T09:29:25.114Z,7.96
2023-01-06T09:31:57.201Z,7.94
2023-01-06T09:34:26.764Z,7.93
2023-01-06T09:36:56.302Z,7.95
2023-01-06T09:39:25.782Z,7.92
2023-01-06T09:42:18.614Z,7.91
2023-01-06T09:44:51.863Z,7.92
2023-01-06T09:47:27.274Z,7.92
2023-01-06T09:50:02.497Z,7.92
2023-01-06T09:52:35.263Z,7.90
2023-01-06T09:55:07.976Z,7.90
2023-01-06T09:57:40.215Z,7.90
2023-01-06T10:00:19.105Z,7.87
2023-01-06T10:02:52.936Z,7.87
2023-01-06T10:05:26.005Z,7.86
2023-01-06T10:08:01.810Z,7.89
2023-01-06T10:10:38.438Z,7.88
2023-01-06T10:13:21.707Z,7.93
2023-01-06T10:15:56.043Z,7.94
2023-01-06T10:18:35.831Z,7.95
2023-01-06T10:21:11.996Z,7.96
2023-01-06T10:23:59.018Z,8.06
2023-01-06T10:26:32.518Z,8.08
2023-01-06T10:29:04.797Z,8.11
2023-01-06T10:31:37.228Z,8.13
2023-01-06T10:34:19.104Z,8.14
2023-01-06T10:36:51.836Z,8.11
2023-01-06T10:39:23.907Z,8.11
2023-01-06T10:42:19.684Z,8.13
2023-01-06T10:44:49.171Z,8.10
2023-01-06T10:47:23.573Z,8.01
2023-01-06T10:49:55.601Z,8.01
2023-01-06T10:52:25.537Z,8.03
2023-01-06T10:54:58.635Z,8.03
2023-01-06T10:57:29.781Z,7.77
2023-01-06T11:00:16.091Z,7.45
2023-01-06T11:02:47.118Z,7.32
2023-01-06T11:05:21.987Z,7.06
2023-01-06T11:07:55.788Z,6.96
2023-01-06T11:10:40.130Z,6.94
2023-01-06T11:13:10.393Z,6.90
2023-01-06T11:15:42.590Z,6.88
2023-01-06T11:18:22.356Z,6.87
2023-01-06T11:21:08.174Z,6.86
2023-01-06T11:23:39.806Z,6.87
2023-01-06T11:26:18.705Z,6.87
2023-01-06T11:28:49.402Z,6.93
2023-01-06T11:31:22.470Z,6.91
2023-01-06T11:33:54.519Z,6.84
2023-01-06T11:36:28.582Z,6.78
2023-01-06T11:38:59.662Z,6.81
2023-01-06T11:41:32.270Z,6.84
2023-01-06T11:44:09.875Z,6.94
2023-01-06T11:46:40.179Z,6.97
2023-01-06T11:49:13.954Z,6.98
2023-01-06T11:51:53.312Z,6.95
2023-01-06T11:54:28.550Z,6.96
2023-01-06T11:57:20.288Z,6.96
2023-01-06T11:59:59.109Z,6.88
2023-01-06T12:02:33.352Z,6.96
2023-01-06T12:05:05.041Z,6.87
2023-01-06T12:07:41.570Z,6.91
2023-01-06T12:10:16.040Z,6.84
2023-01-06T12:12:45.531Z,6.89
2023-01-06T12:15:16.352Z,6.91
2023-01-06T12:17:50.838Z,6.86
2023-01-06T12:20:23.606Z,6.81
2023-01-06T12:22:57.464Z,6.80
2023-01-06T12:25:28.613Z,6.79
2023-01-06T12:28:02.246Z,6.86
2023-01-06T12:30:35.428Z,6.97
2023-01-06T12:33:08.676Z,7.02
2023-01-06T12:35:39.448Z,7.04
2023-01-06T12:38:21.485Z,7.10
2023-01-06T12:40:53.989Z,7.01
2023-01-06T12:43:25.926Z,7.05
2023-01-06T12:45:59.787Z,7.19
2023-01-06T12:48:36.704Z,7.25
2023-01-06T12:51:10.546Z,7.35
2023-01-06T12:53:45.835Z,7.26
2023-01-06T12:56:29.946Z,7.29
2023-01-06T12:59:09.586Z,7.41
2023-01-06T13:01:42.655Z,7.65
2023-01-06T13:04:22.433Z,7.75
2023-01-06T13:07:01.978Z,7.87
2023-01-06T13:09:43.884Z,7.77
2023-01-06T13:12:34.897Z,7.99
2023-01-06T13:15:08.524Z,7.78
2023-01-06T13:17:42.950Z,7.61
2023-01-06T13:20:17.904Z,7.63
2023-01-06T13:22:58.108Z,7.41
2023-01-06T13:25:43.878Z,7.27
2023-01-06T13:28:21.677Z,7.08
2023-01-06T13:31:12.362Z,6.97
2023-01-06T13:34:01.582Z,6.93
2023-01-06T13:36:49.078Z,6.83
2023-01-06T13:39:19.942Z,6.81
2023-01-06T13:41:56.068Z,6.86
2023-01-06T13:44:28.744Z,6.80
2023-01-06T13:47:03.183Z,6.67
2023-01-06T13:49:32.940Z,6.64
2023-01-06T13:52:02.781Z,6.58
2023-01-06T13:55:06.415Z,6.54
2023-01-06T13:57:41.017Z,6.55
2023-01-06T14:00:28.142Z,6.72
2023-01-06T14:03:27.136Z,6.93
2023-01-06T14:05:58.213Z,6.70
2023-01-06T14:08:31.499Z,6.64
2023-01-06T14:11:06.577Z,6.55
2023-01-06T14:13:43.376Z,6.54
2023-01-06T14:16:14.160Z,6.54
2023-01-06T14:18:45.683Z,6.58
2023-01-06T14:21:23.191Z,6.61
2023-01-06T14:23:55.579Z,6.58
2023-01-06T14:26:25.351Z,6.50
2023-01-06T14:29:00.740Z,6.49
2023-01-06T14:31:48.021Z,6.46
2023-01-06T14:34:20.036Z,6.40
2023-01-06T14:36:52.543Z,6.38
2023-01-06T14:39:25.569Z,6.38
2023-01-06T14:42:00.195Z,6.37
2023-01-06T14:44:36.759Z,6.30
2023-01-06T14:47:09.373Z,6.33
2023-01-06T14:49:46.146Z,6.32
2023-01-06T14:52:23.028Z,6.33
2023-01-06T14:54:53.446Z,6.33
2023-01-06T14:57:27.501Z,6.33
2023-01-06T15:00:24.300Z,6.30
2023-01-06T15:02:56.404Z,6.29
2023-01-06T15:05:29.694Z,6.33
2023-01-06T15:08:04.399Z,6.32
2023-01-06T15:10:36.443Z,6.32
2023-01-06T15:13:05.925Z,6.34
2023-01-06T15:15:38.788Z,6.35
2023-01-06T15:18:10.336Z,6.34
2023-01-06T15:20:43.617Z,6.32
2023-01-06T15:23:17.586Z,6.29
2023-01-06T15:25:50.876Z,6.27
2023-01-06T15:28:27.594Z,6.29
2023-01-06T15:31:00.354Z,6.20
2023-01-06T15:33:36.178Z,6.24
2023-01-06T15:36:05.994Z,6.19
2023-01-06T15:38:37.232Z,6.20
2023-01-06T15:41:28.406Z,6.19
2023-01-06T15:43:58.871Z,6.16
2023-01-06T15:46:40.135Z,6.18
2023-01-06T15:49:14.037Z,6.13
2023-01-06T15:51:43.518Z,6.11
2023-01-06T15:54:16.776Z,6.08
2023-01-06T15:56:46.252Z,6.07
2023-01-06T15:59:17.039Z,6.10
2023-01-06T16:01:55.126Z,6.07
2023-01-06T16:04:26.090Z,6.04
2023-01-06T16:06:55.559Z,6.01
2023-01-06T16:09:37.712Z,6.03
2023-01-06T16:12:18.404Z,6.06
2023-01-06T16:14:54.909Z,6.07
2023-01-06T16:17:31.964Z,6.07
2023-01-06T16:20:03.288Z,6.06
2023-01-06T16:22:35.920Z,6.10
2023-01-06T16:25:07.398Z,6.07
2023-01-06T16:27:37.007Z,6.05
2023-01-06T16:30:12.096Z,6.03
2023-01-06T16:32:46.897Z,6.10
2023-01-06T16:35:18.118Z,6.15
2023-01-06T16:37:47.911Z,6.18
2023-01-06T16:40:18.666Z,6.17
2023-01-06T16:42:48.732Z,6.18
2023-01-06T16:45:25.939Z,6.16
2023-01-06T16:47:58.546Z,6.18
2023-01-06T16:50:30.128Z,6.15
2023-01-06T16:53:05.745Z,6.15
2023-01-06T16:55:35.301Z,6.17
2023-01-06T16:58:08.714Z,6.15
2023-01-06T17:00:44.021Z,6.07
2023-01-06T17:03:19.451Z,6.08
2023-01-06T17:05:49.366Z,6.02
2023-01-06T17:08:20.378Z,6.02
2023-01-06T17:10:49.994Z,6.03
2023-01-06T17:13:32.455Z,6.00
2023-01-06T17:16:03.443Z,5.92
2023-01-06T17:18:36.891Z,5.94
2023-01-06T17:21:14.079Z,5.91
2023-01-06T17:23:46.151Z,5.92
2023-01-06T17:26:18.259Z,5.88
2023-01-06T17:28:48.471Z,5.87
2023-01-06T17:31:20.203Z,5.81
2023-01-06T17:33:52.227Z,5.83
2023-01-06T17:36:25.698Z,5.83
2023-01-06T17:38:55.179Z,5.77
2023-01-06T17:41:24.559Z,5.75
2023-01-06T17:43:53.923Z,5.72
2023-01-06T17:46:28.623Z,5.73
2023-01-06T17:49:06.001Z,5.73
2023-01-06T17:51:35.408Z,5.72
2023-01-06T17:54:17.323Z,5.73
2023-01-06T17:56:46.867Z,5.73
2023-01-06T17:59:18.075Z,5.71
2023-01-06T18:01:47.740Z,5.67
2023-01-06T18:04:19.850Z,5.70
2023-01-06T18:06:52.853Z,5.63
2023-01-06T18:09:25.580Z,5.57
2023-01-06T18:11:56.023Z,5.56
2023-01-06T18:14:28.211Z,5.53
2023-01-06T18:16:59.707Z,5.47
2023-01-06T18:19:34.897Z,5.42
2023-01-06T18:22:06.471Z,5.42
2023-01-06T18:24:38.958Z,5.43
2023-01-06T18:27:16.162Z,5.35
2023-01-06T18:29:47.137Z,5.35
2023-01-06T18:32:32.300Z,5.37
2023-01-06T18:35:06.342Z,5.35
2023-01-06T18:37:38.677Z,5.35
2023-01-06T18:40:10.865Z,5.31
2023-01-06T18:42:44.523Z,5.29
2023-01-06T18:45:21.596Z,5.31
2023-01-06T18:47:53.822Z,5.23
2023-01-06T18:50:36.907Z,5.21
2023-01-06T18:53:12.712Z,5.21
2023-01-06T18:55:45.337Z,5.32
2023-01-06T18:58:22.061Z,5.27
2023-01-06T19:00:55.496Z,5.26
2023-01-06T19:03:40.555Z,5.33
2023-01-06T19:06:38.714Z,5.32
2023-01-06T19:09:19.840Z,5.27
2023-01-06T19:11:50.107Z,5.27
2023-01-06T19:14:21.157Z,5.32
2023-01-06T19:16:54.070Z,5.32
2023-01-06T19:19:27.609Z,5.30
2023-01-06T19:22:09.968Z,5.25
2023-01-06T19:24:46.135Z,5.17
2023-01-06T19:27:40.618Z,5.16
2023-01-06T19:30:34.155Z,5.23
2023-01-06T19:33:17.847Z,5.14
2023-01-06T19:35:47.423Z,5.17
2023-01-06T19:38:27.601Z,5.15
2023-01-06T19:40:58.394Z,5.09
2023-01-06T19:43:30.250Z,5.05
2023-01-06T19:45:59.808Z,5.05
2023-01-06T19:48:30.556Z,5.07
2023-01-06T19:51:11.418Z,5.04
2023-01-06T19:53:46.304Z,4.97
2023-01-06T19:56:21.695Z,4.95
2023-01-06T19:58:54.468Z,4.94
2023-01-06T20:01:24.766Z,4.95
2023-01-06T20:03:56.285Z,4.90
2023-01-06T20:06:26.324Z,4.89
2023-01-06T20:08:58.380Z,4.93
2023-01-06T20:11:27.784Z,4.95
2023-01-06T20:13:57.654Z,4.95
2023-01-06T20:16:27.074Z,4.93
2023-01-06T20:18:56.530Z,4.84
2023-01-06T20:21:25.948Z,4.82
2023-01-06T20:23:58.961Z,4.86
2023-01-06T20:26:28.686Z,4.85
2023-01-06T20:28:58.131Z,4.86
2023-01-06T20:31:27.567Z,4.86
2023-01-06T20:33:57.056Z,4.91
2023-01-06T20:36:26.553Z,4.90
2023-01-06T20:38:58.993Z,4.88
2023-01-06T20:41:28.518Z,4.86
2023-01-06T20:43:57.982Z,4.79
2023-01-06T20:46:27.732Z,4.72
2023-01-06T20:48:57.328Z,4.63
2023-01-06T20:51:26.817Z,4.59
2023-01-06T20:53:58.846Z,4.56
2023-01-06T20:56:28.315Z,4.61
2023-01-06T20:58:57.693Z,4.58
2023-01-06T21:01:27.229Z,4.56
2023-01-06T21:03:57.124Z,4.71
2023-01-06T21:06:26.590Z,5.16
2023-01-06T21:08:58.534Z,5.97
2023-01-06T21:11:27.953Z,6.18
2023-01-06T21:13:57.374Z,6.18
2023-01-06T21:16:26.967Z,5.52
2023-01-06T21:18:57.456Z,5.24
2023-01-06T21:21:26.988Z,5.28
2023-01-06T21:24:00.407Z,5.08
2023-01-06T21:26:30.141Z,5.13
2023-01-06T21:28:59.658Z,4.91
2023-01-06T21:31:29.278Z,4.90
2023-01-06T21:33:58.689Z,4.81
2023-01-06T21:36:28.159Z,4.80
2023-01-06T21:39:00.180Z,4.67
2023-01-06T21:41:42.116Z,4.57
2023-01-06T21:44:11.873Z,4.63
2023-01-06T21:46:42.114Z,4.53
2023-01-06T21:49:11.588Z,4.57
2023-01-06T21:51:41.821Z,4.54
2023-01-06T21:54:13.844Z,4.53
2023-01-06T21:56:43.385Z,4.58
2023-01-06T21:59:12.885Z,4.59
2023-01-06T22:01:42.447Z,4.57
2023-01-06T22:04:12.057Z,4.58
2023-01-06T22:06:43.409Z,4.56
2023-01-06T22:09:17.218Z,4.55
2023-01-06T22:11:47.404Z,4.54
2023-01-06T22:14:18.022Z,4.55
2023-01-06T22:16:48.241Z,4.53
2023-01-06T22:19:18.508Z,4.51
2023-01-06T22:21:49.181Z,4.53
2023-01-06T22:24:21.459Z,4.52
2023-01-06T22:26:51.115Z,4.52
2023-01-06T22:29:20.525Z,4.63
2023-01-06T22:31:49.940Z,4.62
2023-01-06T22:34:19.372Z,4.77
2023-01-06T22:36:48.813Z,4.83
2023-01-06T22:39:20.839Z,4.84
2023-01-06T22:41:50.221Z,5.00
2023-01-06T22:44:19.616Z,5.12
2023-01-06T22:46:49.035Z,4.85
2023-01-06T22:49:18.408Z,4.96
2023-01-06T22:51:47.771Z,4.81
2023-01-06T22:54:17.246Z,4.81
2023-01-06T22:56:49.392Z,4.72
2023-01-06T22:59:18.940Z,4.67
2023-01-06T23:01:48.419Z,4.76
2023-01-06T23:04:17.884Z,4.68
2023-01-06T23:06:47.491Z,4.66
2023-01-06T23:09:16.900Z,4.73
2023-01-06T23:11:49.239Z,4.84
2023-01-06T23:14:19.484Z,4.76
2023-01-06T23:16:48.923Z,4.67
2023-01-06T23:19:19.543Z,4.93
2023-01-06T23:21:49.084Z,5.00
2023-01-06T23:24:18.498Z,5.11
2023-01-06T23:26:50.651Z,5.32
2023-01-06T23:29:20.078Z,5.22
2023-01-06T23:31:49.787Z,5.07
2023-01-06T23:34:20.566Z,4.81
2023-01-06T23:36:50.463Z,4.72
2023-01-06T23:39:20.024Z,4.56
2023-01-06T23:41:52.104Z,4.52
2023-01-06T23:44:22.136Z,4.46
2023-01-06T23:46:51.903Z,4.53
2023-01-06T23:49:21.510Z,4.64
2023-01-06T23:51:50.944Z,4.52
2023-01-06T23:54:20.369Z,4.48
2023-01-06T23:56:52.420Z,4.47
2023-01-06T23:59:21.794Z,4.51
